Terminal Aerodrome Forecast
Issued by NWS Burlington, VT

Home | Current Version | Previous Version | Text Only | Print | Product List | Glossary On
Versions: 1 2 3 4 5 6 7 8 9 10 11 12 13 14 15 16 17
000
FTUS41 KBTV 310800 AAA
TAFBTV
TAF AMD
KBTV 310852Z 3109/0106 18012G25KT P6SM OVC100
      TEMPO 3109/3113 2SM SHRA BR OVC040
     FM311300 18012G24KT P6SM BKN040
     FM311900 18012G24KT P6SM VCSH BKN035
     FM010000 18010KT P6SM OVC030=

USA.gov is the U.S. government's official web portal to all federal, state and local government web resources and services.